Date,TemperatureHighF,TemperatureAvgF,TemperatureLowF,DewpointHighF,DewpointAvgF,DewpointLowF,HumidityHigh,HumidityAvg,HumidityLow,PressureMaxIn,PressureMinIn,WindSpeedMaxMPH,WindSpeedAvgMPH,GustSpeedMaxMPH,PrecipitationSumIn
2013-3-1,39,35,32,-100,-100,-100,0,0,100,0.00,40.00,0,-999,0,0.01
2013-3-2,47,37,32,-100,-100,-100,0,0,100,0.00,40.00,0,-999,0,0.00
2013-3-3,38,31,18,-100,-100,-100,0,0,100,0.00,40.00,0,-999,0,0.00
2013-3-4,42,24,13,-100,-100,-100,0,0,100,0.00,40.00,0,-999,0,0.00
2013-3-5,41,29,18,-100,-100,-100,0,0,100,0.00,40.00,0,-999,0,0.00
2013-3-6,38,32,29,-100,-100,-100,0,0,100,0.00,40.00,0,-999,0,0.02
2013-3-7,41,30,24,-100,-100,-100,0,0,100,0.00,40.00,0,-999,0,0.01
2013-3-8,45,30,21,-100,-100,-100,0,0,100,0.00,40.00,0,-999,0,0.00
2013-3-9,43,32,24,-100,-100,-100,0,0,100,0.00,40.00,0,-999,0,0.00
2013-3-10,46,34,24,-100,-100,-100,0,0,100,0.00,40.00,0,-999,0,0.00
2013-3-11,46,37,32,-100,-100,-100,0,0,100,0.00,40.00,0,-999,0,0.01
2013-3-12,43,37,34,-100,-100,-100,0,0,100,0.00,40.00,0,-999,0,0.00
2013-3-13,51,41,36,-100,-100,-100,0,0,100,0.00,40.00,0,-999,0,0.00
2013-3-14,56,43,36,-100,-100,-100,0,0,100,0.00,40.00,0,-999,0,0.00
2013-3-15,52,41,35,-100,-100,-100,0,0,100,0.00,40.00,0,-999,0,0.00
2013-3-16,45,35,29,-100,-100,-100,0,0,100,0.00,40.00,0,-999,0,0.01
2013-3-17,38,27,18,-100,-100,-100,0,0,100,0.00,40.00,0,-999,0,0.01
2013-3-18,40,27,18,-100,-100,-100,0,0,100,0.00,40.00,0,-999,0,0.00
2013-3-19,45,32,16,-100,-100,-100,0,0,100,0.00,40.00,0,-999,0,0.00
2013-3-20,38,35,30,-100,-100,-100,0,0,100,0.00,40.00,0,-999,0,0.04
2013-3-21,33,26,19,-100,-100,-100,0,0,100,0.00,40.00,0,-999,0,0.02
2013-3-22,31,22,14,-100,-100,-100,0,0,100,0.00,40.00,0,-999,0,0.00
2013-3-23,36,19,11,-100,-100,-100,0,0,100,0.00,40.00,0,-999,0,0.01
2013-3-24,40,23,12,-100,-100,-100,0,0,100,0.00,40.00,0,-999,0,0.00
2013-3-25,44,30,18,-100,-100,-100,0,0,100,0.00,40.00,0,-999,0,0.00
2013-3-26,48,36,29,-100,-100,-100,0,0,100,0.00,40.00,0,-999,0,0.00
2013-3-27,47,38,30,-100,-100,-100,0,0,100,0.00,40.00,0,-999,0,0.00
2013-3-28,53,41,35,-100,-100,-100,0,0,100,0.00,40.00,0,-999,0,0.00
2013-3-29,52,40,36,-100,-100,-100,0,0,100,0.00,40.00,0,-999,0,0.00
2013-3-30,57,42,32,-100,-100,-100,0,0,100,0.00,40.00,0,-999,0,0.00
2013-3-31,63,44,34,-100,-100,-100,0,0,100,0.00,40.00,0,-999,0,0.00